Time;durP1;ratioP1;P1;durP2;ratioP2;P2;SDS_P1;SDS_P2;PMS_P1;PMS_P2;Temp;Humidity;BMP_temperature;BMP_pressure;BME280_temperature;BME280_humidity;BME280_pressure;Samples;Min_cycle;Max_cycle;Signal;HPM_P1;HPM_P2
2022/08/05 00:02:07;;;;;;;4.60;3.80;;;;;;;21.49;86.84;99973.63;5013429;28;20227;-73
2022/08/05 00:04:34;;;;;;;5.30;2.77;;;;;;;21.44;86.59;99973.09;5013348;28;20199;-73
2022/08/05 00:07:00;;;;;;;5.30;3.13;;;;;;;21.84;84.80;100015.34;5013361;28;20210;-73
2022/08/05 00:09:27;;;;;;;2.83;2.60;;;;;;;22.21;82.83;100066.69;5013586;28;20199;-73
2022/08/05 00:11:53;;;;;;;3.20;2.90;;;;;;;21.97;81.88;100122.47;5013310;28;20219;-73
2022/08/05 00:14:20;;;;;;;3.20;2.97;;;;;;;21.91;81.87;100125.56;5013011;28;20214;-73
2022/08/05 00:16:46;;;;;;;2.80;2.60;;;;;;;21.92;81.48;100121.94;5012953;28;20767;-73
2022/08/05 00:19:14;;;;;;;4.40;2.90;;;;;;;21.58;82.18;100122.53;5013263;28;20261;-73
2022/08/05 00:21:40;;;;;;;6.93;3.77;;;;;;;21.35;83.55;100097.56;4665556;28;10000354;-73
2022/08/05 00:24:07;;;;;;;6.03;3.40;;;;;;;21.07;84.95;100082.69;5011067;28;20504;-73
2022/08/05 00:26:34;;;;;;;4.40;3.50;;;;;;;20.98;85.19;100089.47;5011687;28;20685;-73
2022/08/05 00:29:00;;;;;;;5.40;3.67;;;;;;;20.84;86.21;100097.50;5013047;28;20261;-73
2022/08/05 00:31:26;;;;;;;4.87;3.90;;;;;;;20.87;86.09;100105.28;5012873;28;20250;-73
2022/08/05 00:33:53;;;;;;;4.77;4.13;;;;;;;20.79;86.39;100123.47;5013181;28;20206;-73
2022/08/05 00:36:23;;;;;;;5.37;3.67;;;;;;;20.76;85.71;100151.06;5012545;28;20668;-73
2022/08/05 00:38:49;;;;;;;4.30;3.90;;;;;;;20.71;86.14;100155.81;5012907;28;20218;-73
2022/08/05 00:41:27;;;;;;;4.87;3.90;;;;;;;20.76;85.41;100174.09;5010099;28;20416;-73
2022/08/05 00:43:53;;;;;;;4.80;4.37;;;;;;;20.71;85.39;100192.94;5012750;28;20256;-72
2022/08/05 00:46:20;;;;;;;5.57;4.20;;;;;;;21.00;84.76;100219.38;5012603;28;20647;-73
2022/08/05 00:48:46;;;;;;;5.10;4.60;;;;;;;20.90;84.92;100229.75;5012816;28;20207;-73
2022/08/05 00:51:14;;;;;;;4.50;4.10;;;;;;;21.09;84.01;100236.50;5012465;28;20257;-73
2022/08/05 00:53:42;;;;;;;6.40;5.80;;;;;;;20.99;84.02;100245.09;5012414;28;20195;-73
2022/08/05 00:56:08;;;;;;;8.63;6.83;;;;;;;20.62;85.87;100212.13;5012173;28;20202;-72
2022/08/05 00:58:35;;;;;;;8.60;6.97;;;;;;;20.65;86.62;100196.00;5012768;28;20259;-73
2022/08/05 01:01:01;;;;;;;6.83;6.10;;;;;;;20.61;86.59;100181.25;5012598;28;20227;-73
2022/08/05 01:03:29;;;;;;;7.87;7.00;;;;;;;20.75;85.86;100193.59;5012579;28;20219;-73
2022/08/05 01:05:55;;;;;;;7.20;6.20;;;;;;;20.91;85.08;100215.56;5012235;28;20752;-73
2022/08/05 01:08:22;;;;;;;8.77;6.50;;;;;;;20.99;84.51;100241.56;5011786;28;20206;-73
2022/08/05 01:10:53;;;;;;;14.57;7.30;;;;;;;20.60;86.57;100195.47;5012141;28;20244;-73
2022/08/05 01:13:25;;;;;;;13.53;8.33;;;;;;;20.53;87.15;100167.59;5010502;28;20230;-73
2022/08/05 01:15:58;;;;;;;10.43;8.67;;;;;;;20.30;88.70;100134.66;5012069;28;20290;-72
2022/08/05 01:18:29;;;;;;;9.00;7.97;;;;;;;20.50;87.77;100151.91;5012451;28;20253;-73
2022/08/05 01:21:07;;;;;;;10.67;9.27;;;;;;;20.43;87.88;100159.38;5009458;28;20227;-73
2022/08/05 01:23:46;;;;;;;8.67;7.60;;;;;;;20.59;87.13;100167.22;5012141;28;20277;-73
2022/08/05 01:26:27;;;;;;;9.87;8.57;;;;;;;20.80;85.76;100212.75;5011688;28;20631;-73
2022/08/05 01:28:58;;;;;;;9.77;7.97;;;;;;;20.55;87.32;100187.75;5012185;28;20197;-73
2022/08/05 01:31:28;;;;;;;15.07;9.27;;;;;;;20.27;88.65;100156.88;5011907;28;20266;-72
2022/08/05 01:34:01;;;;;;;11.07;8.80;;;;;;;19.92;90.94;100128.19;5011998;28;20207;-73
2022/08/05 01:36:32;;;;;;;14.70;9.43;;;;;;;19.68;92.71;100088.13;5011818;28;20202;-73
2022/08/05 01:38:59;;;;;;;12.50;9.93;;;;;;;19.65;93.25;100083.06;5011878;28;20261;-72
2022/08/05 01:41:29;;;;;;;10.53;9.33;;;;;;;19.37;95.12;100055.63;5011744;28;20567;-72
2022/08/05 01:43:57;;;;;;;12.53;9.57;;;;;;;19.39;95.73;100056.41;5011730;28;20198;-72
2022/08/05 01:46:26;;;;;;;10.87;9.00;;;;;;;19.17;96.80;100066.59;5011452;28;20203;-72
2022/08/05 01:48:55;;;;;;;11.97;9.80;;;;;;;19.12;97.88;100073.97;5011882;28;20199;-72
2022/08/05 01:51:22;;;;;;;11.33;10.33;;;;;;;18.95;99.12;100083.75;5011805;28;20205;-73
2022/08/05 01:53:52;;;;;;;12.83;10.37;;;;;;;18.94;99.64;100097.06;5010756;28;20258;-73
2022/08/05 01:56:21;;;;;;;12.63;11.43;;;;;;;18.78;100.00;100118.25;5011403;28;20720;-73
2022/08/05 01:58:50;;;;;;;14.53;12.03;;;;;;;18.78;100.00;100129.66;5011568;28;20206;-73
2022/08/05 02:01:21;;;;;;;12.43;11.10;;;;;;;18.84;100.00;100142.56;5009219;28;20264;-73
2022/08/05 02:03:51;;;;;;;14.57;12.43;;;;;;;18.96;100.00;100169.25;5011718;28;20199;-73
2022/08/05 02:06:18;;;;;;;19.93;12.57;;;;;;;18.99;100.00;100164.66;5009054;28;20230;-73
2022/08/05 02:08:45;;;;;;;16.70;12.03;;;;;;;19.05;99.85;100184.59;5011578;28;20260;-73
2022/08/05 02:11:14;;;;;;;20.13;13.40;;;;;;;18.86;100.00;100187.44;5011333;28;20328;-72
2022/08/05 02:13:44;;;;;;;16.83;13.20;;;;;;;18.71;100.00;100197.09;5011698;28;20656;-73
2022/08/05 02:16:18;;;;;;;17.53;14.23;;;;;;;18.55;100.00;100206.81;5011355;28;20207;-73
2022/08/05 02:18:50;;;;;;;23.53;14.73;;;;;;;18.57;100.00;100202.28;5011615;28;20664;-73
2022/08/05 02:21:19;;;;;;;15.97;13.90;;;;;;;18.57;100.00;100197.00;5012781;28;20222;-73
2022/08/05 02:23:49;;;;;;;25.07;15.33;;;;;;;18.61;100.00;100195.88;5015214;28;20207;-73
2022/08/05 02:26:21;;;;;;;20.07;13.67;;;;;;;18.91;100.00;100203.03;5015554;28;20233;-73
2022/08/05 02:28:49;;;;;;;15.83;13.23;;;;;;;19.15;100.00;100232.53;5015553;28;20211;-73
2022/08/05 02:31:23;;;;;;;13.47;12.13;;;;;;;19.45;100.00;100232.53;5015686;28;20203;-73
2022/08/05 02:33:56;;;;;;;16.83;12.03;;;;;;;19.39;97.89;100301.72;5015432;28;20310;-73
2022/08/05 02:36:24;;;;;;;19.17;14.00;;;;;;;19.10;98.98;100320.09;5015340;28;20210;-73
2022/08/05 02:38:53;;;;;;;15.80;12.37;;;;;;;19.27;99.32;100321.81;5015364;28;20273;-73
2022/08/05 02:41:21;;;;;;;15.20;11.10;;;;;;;19.54;97.71;100363.50;5015400;28;20351;-72
2022/08/05 02:43:50;;;;;;;16.00;12.33;;;;;;;19.55;97.58;100336.94;5015594;28;20210;-73
2022/08/05 02:46:18;;;;;;;21.37;13.53;;;;;;;19.82;96.89;100297.44;5015207;28;20207;-74
2022/08/05 02:48:46;;;;;;;19.80;13.47;;;;;;;20.03;96.35;100225.53;5015523;28;20210;-73
2022/08/05 02:51:15;;;;;;;18.80;13.40;;;;;;;20.24;94.37;100203.00;5015191;28;20669;-73
2022/08/05 02:53:42;;;;;;;20.07;12.13;;;;;;;20.39;93.43;100217.06;5014957;28;20206;-74
2022/08/05 02:56:11;;;;;;;15.20;10.93;;;;;;;20.54;93.40;100241.75;5015134;28;20230;-73
2022/08/05 02:58:40;;;;;;;14.77;12.50;;;;;;;20.61;92.48;100282.03;5015311;28;20211;-73
2022/08/05 03:01:10;;;;;;;15.23;12.33;;;;;;;20.60;92.46;100293.59;5014989;28;20217;-73
2022/08/05 03:03:40;;;;;;;12.77;10.27;;;;;;;20.62;92.64;100312.91;5015135;28;20206;-73
2022/08/05 03:06:07;;;;;;;14.83;11.97;;;;;;;20.30;93.22;100323.69;5014664;28;20203;-73
2022/08/05 03:08:36;;;;;;;12.80;10.97;;;;;;;20.29;93.82;100307.88;5014958;28;20626;-73
2022/08/05 03:11:02;;;;;;;14.37;10.97;;;;;;;20.39;92.29;100316.97;5015038;28;20199;-73
2022/08/05 03:13:29;;;;;;;14.90;11.20;;;;;;;20.32;92.68;100290.00;5015060;28;20229;-73
2022/08/05 03:15:55;;;;;;;12.17;10.90;;;;;;;20.49;90.98;100334.00;5014704;28;20252;-73
2022/08/05 03:18:22;;;;;;;13.23;11.23;;;;;;;20.40;92.95;100330.13;5014785;28;20219;-73
2022/08/05 03:20:48;;;;;;;13.37;11.97;;;;;;;20.49;92.90;100310.13;5014985;28;20222;-73
2022/08/05 03:23:15;;;;;;;14.00;12.47;;;;;;;20.46;91.57;100331.56;5014611;28;20226;-74
2022/08/05 03:25:43;;;;;;;15.03;12.17;;;;;;;20.44;92.30;100313.09;5014271;28;20613;-73
2022/08/05 03:28:10;;;;;;;11.97;10.80;;;;;;;20.57;91.56;100326.44;5014695;28;20211;-73
2022/08/05 03:30:37;;;;;;;12.00;10.87;;;;;;;20.60;91.60;100328.94;5013965;28;20272;-73
2022/08/05 03:33:06;;;;;;;11.47;10.37;;;;;;;20.61;90.55;100329.78;5014145;28;20238;-73
2022/08/05 03:35:32;;;;;;;14.33;10.90;;;;;;;20.65;91.88;100295.94;5014203;28;20618;-73
2022/08/05 03:38:00;;;;;;;12.43;11.13;;;;;;;20.75;90.58;100321.81;5014421;28;20203;-73
2022/08/05 03:40:26;;;;;;;10.97;9.87;;;;;;;20.81;90.26;100309.94;5014487;28;20210;-73
2022/08/05 03:42:54;;;;;;;11.97;10.07;;;;;;;20.80;91.68;100285.22;5014122;28;20688;-74
2022/08/05 03:45:21;;;;;;;9.33;8.10;;;;;;;20.83;90.76;100310.69;5013999;28;20207;-74
2022/08/05 03:47:47;;;;;;;11.37;8.83;;;;;;;20.83;89.87;100331.91;5014433;28;20203;-73
2022/08/05 03:50:14;;;;;;;9.77;8.20;;;;;;;20.85;89.76;100343.28;5014379;28;20257;-73
2022/08/05 03:52:47;;;;;;;9.87;8.90;;;;;;;20.86;89.75;100352.97;5013988;28;20227;-73
2022/08/05 03:55:20;;;;;;;11.23;9.53;;;;;;;20.87;89.17;100360.00;5013875;28;20294;-73
2022/08/05 03:57:50;;;;;;;10.60;9.60;;;;;;;20.87;89.69;100332.56;5013925;28;20211;-74
2022/08/05 04:00:20;;;;;;;10.80;8.37;;;;;;;20.85;89.01;100343.28;5014147;28;20677;-73
2022/08/05 04:02:51;;;;;;;9.70;8.67;;;;;;;20.85;88.76;100347.75;5013822;28;20234;-73
2022/08/05 04:05:18;;;;;;;8.90;8.10;;;;;;;20.88;88.77;100344.91;5013722;28;20734;-73
2022/08/05 04:07:45;;;;;;;9.70;8.73;;;;;;;20.86;88.70;100350.31;5013942;28;20211;-73
2022/08/05 04:10:12;;;;;;;14.23;9.40;;;;;;;20.82;89.08;100335.53;5013919;28;20221;-73
2022/08/05 04:12:38;;;;;;;9.77;8.87;;;;;;;20.77;88.72;100330.53;5013959;28;20223;-73
2022/08/05 04:15:05;;;;;;;9.23;8.33;;;;;;;20.83;88.72;100327.47;5013656;28;20258;-74
2022/08/05 04:17:35;;;;;;;9.73;8.77;;;;;;;20.89;88.83;100323.59;5013673;28;20691;-73
2022/08/05 04:20:01;;;;;;;11.07;9.77;;;;;;;20.86;89.90;100304.34;5013088;28;20207;-73
2022/08/05 04:22:28;;;;;;;9.27;8.43;;;;;;;20.85;89.84;100284.06;5013358;28;20227;-73
2022/08/05 04:24:54;;;;;;;8.50;7.60;;;;;;;20.81;89.37;100296.66;5013295;28;20222;-72
2022/08/05 04:27:21;;;;;;;11.03;9.93;;;;;;;20.78;90.01;100281.81;5013739;28;20203;-74
2022/08/05 04:29:47;;;;;;;9.40;8.57;;;;;;;20.81;89.68;100300.19;5013718;28;20207;-73
2022/08/05 04:32:14;;;;;;;9.70;8.70;;;;;;;20.87;89.11;100321.97;5012824;28;20227;-73
2022/08/05 04:34:41;;;;;;;10.53;9.60;;;;;;;20.71;89.27;100327.41;5012752;28;20253;-73
2022/08/05 04:37:08;;;;;;;16.63;11.10;;;;;;;20.47;90.70;100303.25;5013287;28;20826;-73
2022/08/05 04:39:34;;;;;;;11.80;10.60;;;;;;;20.33;92.08;100257.22;5013286;28;20222;-73
2022/08/05 04:42:01;;;;;;;14.37;12.77;;;;;;;20.29;92.54;100250.41;5012821;28;20234;-73
2022/08/05 04:44:27;;;;;;;15.47;14.00;;;;;;;20.00;94.12;100220.44;5012585;28;20673;-73
2022/08/05 04:46:53;;;;;;;16.33;14.60;;;;;;;19.69;96.54;100171.94;5012973;28;20206;-73
2022/08/05 04:49:20;;;;;;;19.77;14.23;;;;;;;19.67;97.29;100157.09;5013160;28;20273;-73
2022/08/05 04:51:47;;;;;;;17.30;15.40;;;;;;;19.53;98.56;100142.91;5013230;28;20231;-73
2022/08/05 04:54:14;;;;;;;20.17;16.30;;;;;;;19.37;99.98;100140.34;5013077;28;20762;-73
2022/08/05 04:56:40;;;;;;;17.30;15.60;;;;;;;19.11;100.00;100123.38;5012725;28;20669;-73
2022/08/05 04:59:07;;;;;;;22.17;16.63;;;;;;;19.09;100.00;100132.34;5013010;28;20759;-72
2022/08/05 05:01:33;;;;;;;21.53;17.60;;;;;;;18.85;100.00;100143.44;5012896;28;20234;-73
2022/08/05 05:04:00;;;;;;;22.70;17.33;;;;;;;18.93;100.00;100153.53;5012694;28;20288;-73
2022/08/05 05:06:26;;;;;;;27.37;19.33;;;;;;;18.96;100.00;100170.09;5012826;28;20214;-73
2022/08/05 05:08:54;;;;;;;19.10;17.10;;;;;;;19.01;100.00;100169.84;5012858;28;20677;-73
2022/08/05 05:11:21;;;;;;;21.50;17.77;;;;;;;19.17;100.00;100178.59;5012821;28;20218;-73
2022/08/05 05:13:47;;;;;;;17.73;15.33;;;;;;;19.33;100.00;100199.69;5012808;28;20645;-73
2022/08/05 05:16:14;;;;;;;18.07;14.77;;;;;;;19.34;100.00;100221.72;5012514;28;20257;-72
2022/08/05 05:18:42;;;;;;;20.97;14.53;;;;;;;19.37;100.00;100229.50;5012533;28;20673;-73
2022/08/05 05:21:09;;;;;;;21.03;15.17;;;;;;;19.34;100.00;100249.03;5012784;28;20206;-73
2022/08/05 05:23:35;;;;;;;20.30;15.43;;;;;;;19.49;100.00;100262.34;5012541;28;20230;-73
2022/08/05 05:26:03;;;;;;;21.00;15.40;;;;;;;19.41;100.00;100268.91;5012466;28;20253;-73
2022/08/05 05:28:29;;;;;;;19.90;16.13;;;;;;;19.44;100.00;100266.09;5012594;28;20260;-73
2022/08/05 05:30:56;;;;;;;23.50;15.63;;;;;;;19.35;100.00;100253.41;5012379;28;20289;-73
2022/08/05 05:33:22;;;;;;;15.53;13.23;;;;;;;19.44;100.00;100236.97;5011785;28;20265;-73
2022/08/05 05:35:49;;;;;;;19.67;15.17;;;;;;;19.40;100.00;100242.53;5012204;28;20203;-73
2022/08/05 05:38:16;;;;;;;20.13;14.73;;;;;;;19.29;100.00;100244.97;5012403;28;20269;-73
2022/08/05 05:40:43;;;;;;;21.97;15.00;;;;;;;19.42;100.00;100228.28;5012555;28;20264;-73
2022/08/05 05:43:11;;;;;;;18.80;16.20;;;;;;;19.41;100.00;100228.38;5012088;28;20328;-73
2022/08/05 05:45:37;;;;;;;17.60;14.87;;;;;;;19.75;100.00;100229.88;5012276;28;20214;-73
2022/08/05 05:48:06;;;;;;;16.20;14.13;;;;;;;20.08;100.00;100249.09;5012344;28;20206;-73
2022/08/05 05:50:33;;;;;;;23.80;15.53;;;;;;;20.13;98.72;100302.66;5012164;28;20657;-73
2022/08/05 05:53:00;;;;;;;19.03;15.20;;;;;;;20.16;97.62;100326.34;5011916;28;20696;-73
2022/08/05 05:55:26;;;;;;;20.83;15.57;;;;;;;20.15;97.64;100335.22;5011500;28;20206;-73
2022/08/05 05:57:52;;;;;;;21.23;15.60;;;;;;;19.91;97.85;100327.81;5012387;28;20260;-73
2022/08/05 06:00:21;;;;;;;20.30;17.33;;;;;;;19.68;98.09;100339.72;5012205;28;20207;-73
2022/08/05 06:02:48;;;;;;;24.27;17.53;;;;;;;19.65;99.89;100318.72;5011230;28;20226;-73
2022/08/05 06:05:16;;;;;;;24.67;18.10;;;;;;;19.15;100.00;100309.28;5009745;28;20672;-73
2022/08/05 06:07:43;;;;;;;22.67;17.87;;;;;;;18.92;100.00;100303.47;5011596;28;20199;-73
2022/08/05 06:10:10;;;;;;;25.90;17.77;;;;;;;18.67;100.00;100309.22;5011351;28;20202;-74
2022/08/05 06:12:38;;;;;;;23.70;18.67;;;;;;;18.51;100.00;100327.72;5009112;28;20218;-74
2022/08/05 06:15:07;;;;;;;27.40;19.73;;;;;;;18.41;100.00;100361.72;5011503;28;20253;-74
2022/08/05 06:17:35;;;;;;;25.33;20.47;;;;;;;18.39;100.00;100381.22;5010900;28;20205;-75
2022/08/05 06:20:02;;;;;;;26.27;20.93;;;;;;;18.40;100.00;100381.16;5011533;28;20698;-76
2022/08/05 06:22:30;;;;;;;30.37;20.17;;;;;;;18.49;100.00;100387.72;5011109;28;20637;-76
2022/08/05 06:24:57;;;;;;;25.03;20.33;;;;;;;18.41;100.00;100390.81;5008480;28;20280;-75
2022/08/05 06:27:23;;;;;;;29.27;20.27;;;;;;;18.51;100.00;100375.28;5011466;28;20249;-75
2022/08/05 06:29:49;;;;;;;35.20;22.33;;;;;;;18.42;100.00;100383.72;5011659;28;20209;-75
2022/08/05 06:32:16;;;;;;;28.83;21.30;;;;;;;18.49;100.00;100371.88;5008594;28;20292;-76
2022/08/05 06:34:44;;;;;;;28.50;20.23;;;;;;;18.26;100.00;100346.69;5010866;28;20199;-74
2022/08/05 06:37:10;;;;;;;22.70;19.30;;;;;;;18.52;100.00;100312.72;5011093;28;20260;-75
2022/08/05 06:39:38;;;;;;;18.27;16.47;;;;;;;18.74;100.00;100300.03;5008560;28;20730;-74
2022/08/05 06:42:05;;;;;;;18.00;16.20;;;;;;;18.93;100.00;100285.81;5011143;28;20305;-74
2022/08/05 06:44:31;;;;;;;15.77;14.33;;;;;;;19.07;100.00;100282.38;5011137;28;20227;-74
2022/08/05 06:46:58;;;;;;;15.13;13.70;;;;;;;19.19;100.00;100287.00;5011010;28;20210;-74
2022/08/05 06:49:25;;;;;;;15.77;14.27;;;;;;;19.30;100.00;100281.91;5011188;28;20228;-74
2022/08/05 06:51:52;;;;;;;20.37;14.53;;;;;;;19.43;100.00;100285.56;5010969;28;20261;-74
2022/08/05 06:54:19;;;;;;;14.40;12.97;;;;;;;19.54;100.00;100274.31;5011250;28;20206;-74
2022/08/05 06:56:45;;;;;;;14.30;13.07;;;;;;;19.62;100.00;100287.13;5010786;28;20609;-74
2022/08/05 06:59:13;;;;;;;15.00;13.47;;;;;;;19.67;100.00;100303.59;5010851;28;20652;-74
2022/08/05 07:05:27;;;;;;;15.20;13.40;;;;;;;19.88;99.50;100293.56;4909088;28;20363;-86
2022/08/05 07:07:55;;;;;;;15.27;13.90;;;;;;;19.98;99.32;100301.78;5004949;28;20207;-82
2022/08/05 07:10:22;;;;;;;13.40;12.30;;;;;;;20.06;99.06;100303.97;5014757;28;20230;-85
2022/08/05 07:18:19;;;;;;;10.40;9.67;;;;;;;20.13;97.62;100339.78;5019380;28;20212;-81
2022/08/05 07:20:46;;;;;;;10.73;9.80;;;;;;;20.19;97.02;100350.84;5022193;28;20210;-83
2022/08/05 07:23:13;;;;;;;10.87;9.90;;;;;;;20.23;96.72;100343.56;5022495;28;20227;-83
2022/08/05 07:25:40;;;;;;;8.77;8.13;;;;;;;20.30;95.17;100365.28;5025608;28;20202;-84
2022/08/05 07:28:06;;;;;;;9.20;8.27;;;;;;;20.35;94.29;100379.09;5025729;28;20255;-82
2022/08/05 07:30:35;;;;;;;10.03;9.13;;;;;;;20.46;94.51;100370.50;5025389;28;20219;-82
2022/08/05 07:33:02;;;;;;;8.57;7.77;;;;;;;20.53;93.65;100385.91;5023426;28;20219;-83
2022/08/05 07:35:29;;;;;;;8.63;8.03;;;;;;;20.65;94.55;100367.56;5023988;28;20199;-83
2022/08/05 07:37:56;;;;;;;9.87;9.00;;;;;;;20.76;94.53;100367.75;5024304;28;20743;-82
2022/08/05 07:40:24;;;;;;;9.70;8.90;;;;;;;20.33;95.01;100386.28;5021724;28;20210;-81
2022/08/05 07:42:50;;;;;;;10.40;9.60;;;;;;;20.28;96.19;100359.19;5023411;28;20709;-83
2022/08/05 07:45:16;;;;;;;9.80;8.80;;;;;;;20.09;95.55;100370.06;5028699;28;20683;-82
2022/08/05 07:47:43;;;;;;;9.13;8.43;;;;;;;20.27;96.06;100352.19;5034296;28;20206;-81
2022/08/05 07:50:10;;;;;;;8.60;8.00;;;;;;;20.37;96.00;100345.38;5034210;28;20199;-83
2022/08/05 07:52:39;;;;;;;10.83;8.80;;;;;;;20.31;95.85;100329.84;5025141;28;20275;-81
2022/08/05 07:55:05;;;;;;;10.53;9.63;;;;;;;20.23;95.52;100340.91;5023448;28;20214;-82
2022/08/05 07:57:33;;;;;;;10.50;9.53;;;;;;;20.07;97.11;100300.41;5024143;28;20211;-82
2022/08/05 08:00:00;;;;;;;10.13;9.33;;;;;;;20.23;97.38;100278.13;5024309;28;20257;-82
2022/08/05 08:02:28;;;;;;;8.07;7.40;;;;;;;20.39;96.49;100296.59;5023162;28;20276;-82
2022/08/05 08:04:56;;;;;;;8.73;8.03;;;;;;;20.52;95.93;100323.22;5022608;28;20229;-83
2022/08/05 08:07:22;;;;;;;8.57;7.67;;;;;;;20.39;94.74;100357.56;5022804;28;20703;-83
2022/08/05 08:09:49;;;;;;;8.80;8.13;;;;;;;19.78;97.68;100314.47;5022797;28;20203;-82
2022/08/05 08:12:16;;;;;;;8.30;7.60;;;;;;;19.67;98.39;100302.75;5023888;28;20249;-81
2022/08/05 08:14:44;;;;;;;9.30;8.50;;;;;;;19.53;98.74;100298.28;5022483;28;20207;-82
2022/08/05 08:17:11;;;;;;;8.77;8.07;;;;;;;19.35;99.86;100297.53;5023070;28;20208;-82
2022/08/05 08:19:37;;;;;;;8.70;7.93;;;;;;;19.20;100.00;100268.34;5023365;28;20214;-82
2022/08/05 08:22:04;;;;;;;8.23;7.53;;;;;;;19.11;100.00;100268.03;5022935;28;20227;-82
2022/08/05 08:24:32;;;;;;;8.70;7.90;;;;;;;19.07;100.00;100275.31;5023047;28;20277;-82
2022/08/05 08:26:58;;;;;;;10.03;9.23;;;;;;;18.92;100.00;100284.97;5023642;28;20264;-82
2022/08/05 08:29:25;;;;;;;10.03;9.13;;;;;;;18.97;100.00;100274.13;5023317;28;20992;-82
2022/08/05 08:31:52;;;;;;;9.70;9.00;;;;;;;19.27;100.00;100268.03;5024422;28;20250;-81
2022/08/05 08:34:21;;;;;;;9.77;8.97;;;;;;;19.54;99.83;100286.72;5024764;28;20226;-83
2022/08/05 08:36:48;;;;;;;9.07;8.37;;;;;;;19.71;98.98;100314.88;5022894;28;20567;-81
2022/08/05 08:39:16;;;;;;;10.53;9.83;;;;;;;19.63;97.89;100366.47;5022629;28;20266;-82
2022/08/05 08:41:44;;;;;;;10.20;9.40;;;;;;;19.61;97.49;100388.69;5022357;28;20231;-81
2022/08/05 08:44:11;;;;;;;12.33;11.40;;;;;;;19.57;97.51;100390.66;5022328;28;20230;-81
2022/08/05 08:46:38;;;;;;;13.17;12.03;;;;;;;19.57;97.23;100382.72;5020908;28;20241;-81
2022/08/05 08:49:07;;;;;;;13.03;12.10;;;;;;;19.80;96.89;100391.16;5021768;28;20211;-82
2022/08/05 08:51:35;;;;;;;12.97;12.00;;;;;;;19.83;95.87;100413.03;5020563;28;20285;-81
2022/08/05 08:54:02;;;;;;;12.53;11.43;;;;;;;19.96;95.53;100415.84;5021089;28;20214;-79
2022/08/05 08:56:29;;;;;;;10.73;9.90;;;;;;;20.01;94.76;100429.66;5021291;28;20259;-81
2022/08/05 08:58:58;;;;;;;9.70;8.83;;;;;;;19.80;94.69;100445.00;5021208;28;20233;-82
2022/08/05 09:01:24;;;;;;;9.33;8.53;;;;;;;19.66;95.31;100431.66;5020700;28;20213;-79
2022/08/05 09:03:53;;;;;;;9.30;8.37;;;;;;;19.79;94.61;100456.53;5020966;28;20218;-82
2022/08/05 09:06:21;;;;;;;8.47;7.67;;;;;;;19.55;93.94;100476.44;5023794;28;20274;-82
2022/08/05 09:08:48;;;;;;;8.43;7.73;;;;;;;19.33;94.76;100459.09;5024770;28;20644;-83
2022/08/05 09:11:20;;;;;;;8.77;7.97;;;;;;;19.35;95.39;100436.03;5016505;28;20253;-79
2022/08/05 09:13:47;;;;;;;9.50;8.57;;;;;;;19.04;96.40;100431.56;5017498;28;20207;-80
2022/08/05 09:16:13;;;;;;;9.57;8.80;;;;;;;19.12;96.43;100416.13;5018640;28;20251;-78
2022/08/05 09:18:43;;;;;;;9.53;8.60;;;;;;;19.39;96.40;100411.09;5018793;28;20554;-80
2022/08/05 09:21:09;;;;;;;9.77;8.83;;;;;;;19.25;96.76;100414.50;5016183;28;20257;-81
2022/08/05 09:23:37;;;;;;;9.37;8.60;;;;;;;19.51;96.22;100417.50;5016689;28;20693;-81
2022/08/05 09:26:08;;;;;;;9.83;8.60;;;;;;;19.45;95.96;100429.28;5015188;28;20296;-81
2022/08/05 09:28:36;;;;;;;9.40;8.60;;;;;;;19.47;96.55;100417.78;5016343;28;20203;-83
2022/08/05 09:31:07;;;;;;;12.13;11.20;;;;;;;18.98;97.13;100408.09;5017248;28;20210;-83
2022/08/05 09:33:47;;;;;;;13.13;12.03;;;;;;;18.82;98.08;100394.84;5017289;28;20250;-80
2022/08/05 09:36:13;;;;;;;14.07;12.77;;;;;;;18.65;99.45;100358.69;5016355;28;20268;-81
2022/08/05 09:38:55;;;;;;;12.60;11.47;;;;;;;18.96;98.60;100368.50;5016504;28;20762;-82
2022/08/05 09:41:21;;;;;;;12.07;11.07;;;;;;;19.12;97.67;100408.19;5015260;28;20679;-82
2022/08/05 09:43:48;;;;;;;13.10;12.00;;;;;;;19.27;96.92;100434.75;5015109;28;20276;-79
2022/08/05 09:46:26;;;;;;;14.43;13.20;;;;;;;19.11;96.11;100456.78;5016173;28;20237;-81
2022/08/05 09:48:53;;;;;;;16.37;14.93;;;;;;;19.10;96.25;100462.97;5016876;28;20669;-82
2022/08/05 09:51:31;;;;;;;16.77;15.27;;;;;;;19.07;95.33;100468.47;5016267;28;20304;-82
2022/08/05 09:53:59;;;;;;;15.07;13.80;;;;;;;18.97;95.64;100476.03;5017381;28;20221;-81
2022/08/05 09:56:27;;;;;;;13.47;12.43;;;;;;;19.07;95.17;100476.41;5016529;28;20264;-81
2022/08/05 09:58:58;;;;;;;13.03;12.03;;;;;;;18.94;96.96;100444.44;5016138;28;20210;-80
2022/08/05 10:01:25;;;;;;;13.87;12.80;;;;;;;18.69;96.38;100442.22;5017233;28;20265;-81
2022/08/05 10:03:58;;;;;;;14.77;13.67;;;;;;;18.80;98.04;100421.38;5016227;28;20215;-82
2022/08/05 10:06:25;;;;;;;13.60;12.53;;;;;;;18.97;97.44;100430.22;5016319;28;20203;-81
2022/08/05 10:08:51;;;;;;;15.03;13.77;;;;;;;18.98;96.81;100445.97;5016484;28;20218;-82
2022/08/05 10:11:19;;;;;;;14.13;13.07;;;;;;;18.92;96.46;100453.41;5016879;28;20261;-82
2022/08/05 10:13:46;;;;;;;13.47;12.37;;;;;;;19.10;95.40;100468.28;5017190;28;20202;-79
2022/08/05 10:16:30;;;;;;;13.43;12.43;;;;;;;19.16;94.74;100485.63;5017387;28;20210;-81
2022/08/05 10:18:57;;;;;;;15.23;14.23;;;;;;;18.98;95.20;100477.72;5016420;28;20238;-82
2022/08/05 10:21:23;;;;;;;14.53;13.53;;;;;;;19.01;95.88;100466.16;5016814;28;20210;-81
2022/08/05 10:23:50;;;;;;;14.97;13.90;;;;;;;19.22;95.93;100467.59;5017308;28;20237;-81
2022/08/05 10:26:16;;;;;;;21.00;19.50;;;;;;;19.20;94.57;100500.38;5017081;28;20206;-80
2022/08/05 10:28:45;;;;;;;19.67;18.37;;;;;;;19.12;94.02;100521.97;5016933;28;20202;-80
2022/08/05 10:31:13;;;;;;;17.53;16.20;;;;;;;19.28;93.63;100521.16;5016939;28;20580;-82
2022/08/05 10:33:40;;;;;;;18.73;17.27;;;;;;;19.39;93.73;100511.69;5016446;28;20240;-82
2022/08/05 10:36:07;;;;;;;15.53;14.43;;;;;;;19.35;93.15;100507.50;5015956;28;20273;-81
2022/08/05 10:38:35;;;;;;;13.40;12.40;;;;;;;19.50;93.08;100521.69;5016152;28;20218;-80
2022/08/05 10:41:08;;;;;;;14.47;13.30;;;;;;;19.63;92.60;100546.56;5018280;28;20210;-81
2022/08/05 10:43:43;;;;;;;13.90;12.90;;;;;;;19.61;92.56;100548.44;5020043;28;20230;-81
2022/08/05 10:46:13;;;;;;;12.37;11.20;;;;;;;19.01;93.16;100561.38;5019287;28;20210;-81
2022/08/05 10:48:40;;;;;;;12.27;11.27;;;;;;;19.07;95.14;100529.31;5020249;28;20210;-80
2022/08/05 10:51:09;;;;;;;14.83;13.57;;;;;;;19.07;95.33;100505.50;5020146;28;20214;-80
2022/08/05 10:53:39;;;;;;;14.07;13.10;;;;;;;18.96;95.38;100486.69;5020126;28;20203;-81
2022/08/05 10:56:07;;;;;;;9.57;8.87;;;;;;;18.78;95.00;100501.69;5019001;28;20202;-82
2022/08/05 10:58:34;;;;;;;8.47;7.67;;;;;;;18.79;95.01;100517.53;5019064;28;20206;-81
2022/08/05 11:01:04;;;;;;;7.33;6.70;;;;;;;18.57;95.03;100504.53;5019956;28;20211;-81
2022/08/05 11:03:33;;;;;;;5.83;5.43;;;;;;;18.53;94.72;100526.78;5019936;28;20229;-79
2022/08/05 11:06:05;;;;;;;4.10;3.80;;;;;;;18.32;92.64;100567.50;5019944;28;20208;-81
2022/08/05 11:08:31;;;;;;;5.03;4.37;;;;;;;18.27;92.10;100596.75;5019672;28;20677;-80
2022/08/05 11:11:32;;;;;;;4.17;3.63;;;;;;;18.17;91.16;100638.63;5019766;28;20222;-80
2022/08/05 11:13:59;;;;;;;3.77;3.17;;;;;;;17.94;91.45;100642.34;5020170;28;20269;-80
2022/08/05 11:16:26;;;;;;;4.17;3.70;;;;;;;17.99;91.08;100639.50;5019866;28;20198;-81
2022/08/05 11:19:27;;;;;;;3.90;3.60;;;;;;;17.87;91.74;100619.78;5019986;28;20210;-81
2022/08/05 11:21:55;;;;;;;3.93;3.60;;;;;;;17.93;91.73;100626.56;5019015;28;20228;-81
2022/08/05 11:24:22;;;;;;;4.47;4.07;;;;;;;18.14;90.93;100630.00;5011195;28;20773;-81
2022/08/05 11:26:50;;;;;;;5.27;3.80;;;;;;;18.33;90.30;100651.09;5019267;28;20324;-80
2022/08/05 11:29:35;;;;;;;4.30;3.83;;;;;;;18.28;88.99;100704.19;5019290;28;20206;-82